Florennes Air Base, Belgium

23:19 CET le 09 février 2016 (GMT +0100)
Beauvechain Air Base | | Change Station
CLOSE
Current Station
Aéroport
Location: Beauvechain,
Altitude: 417 ft
Stations météo à proximité

Alt. 417 ft 50.76 °N, 4.77 °E | Updated 16 minutes ago

Mostly Cloudy
Nuageux
37 ° F
Paraît 28 ° F
N
15
Vent Variable Vent de SO

Aujourd'hui
Haut(e) -- | Bas -- ° F
--% Risque de précip.
Hier
Haut(e) -- | Bas -- ° F
Precip. -- pouce
Pression 29.24 pouce
Visibilité 6.2 Miles terrestres
Nuages Peu 1100 ft
Nuages épars 1400 ft
Nuageux 3300 ft
Refroidissement éolien 28 ° F
Point de rosée 34 ° F
Humidité 87%
Précipitations 0.00 pouce
Profondeur de la couche neigeuse Non disponible.
8:04 AM 5:47 PM
Nouvelle lune, 2% visible
SPECI EBBE 092203Z AUTO 23013KT 9999 FEW011/// SCT014/// BKN033/// 03/01 Q0990 GRN
Pression 29.24 pouce
Visibilité 6.2 Miles terrestres
Nuages Peu 1100 ft
Nuages épars 1400 ft
Nuageux 3300 ft
Refroidissement éolien 28 ° F
Point de rosée 34 ° F
Humidité 87%
Précipitations 0.00 pouce
Profondeur de la couche neigeuse Non disponible.
8:04 AM 5:47 PM
Nouvelle lune, 2% visible
SPECI EBBE 092203Z AUTO 23013KT 9999 FEW011/// SCT014/// BKN033/// 03/01 Q0990 GRN

10-Day Weather Forecast

Almanac

Astronomie

Feb. 09, 2016 Lever Coucher
Temps réel
Crépuscule civil
Crépuscule nautique
Crépuscule astronomique
Lune
Durée de lumière visible
Longueur du jour
Tomorrow will be .
, % of the Moon is Illuminated

Extrêmes aujourd'hui

Country Highs Country Lows

Community

WunderPhotos

Upload Photos

1,891,719 Photos téléchargées !

WunderBlog® & News

Nearby

Qualité de l'air

  Qualité de l'air Indice de la qualité de l'air Polluant
Not available.

Épaisseur de neige

Station Depth Altitude

Activité sismique

Ville Distance Mag. Time & Date
Minimum magnitude displayed is 2.5.

Températures des eaux côtières

Lieu Température

Stations

Stations météo à proximité

Emplacement de la station Température Refroidissement éolien Point de rosée Humidité Vent Precip. Alt. Mise à jour Type